createdAt,value
2018-08-10T00:00:57.185Z,25.61
2018-08-10T00:03:26.403Z,25.60
2018-08-10T00:05:55.945Z,25.65
2018-08-10T00:08:25.611Z,25.68
2018-08-10T00:10:54.809Z,25.72
2018-08-10T00:13:24.081Z,25.74
2018-08-10T00:15:53.319Z,25.75
2018-08-10T00:18:22.840Z,25.80
2018-08-10T00:20:52.461Z,25.83
2018-08-10T00:23:22.065Z,25.90
2018-08-10T00:25:51.497Z,25.93
2018-08-10T00:28:20.775Z,26.02
2018-08-10T00:30:49.936Z,26.13
2018-08-10T00:33:19.156Z,26.17
2018-08-10T00:35:48.408Z,26.22
2018-08-10T00:38:17.742Z,26.20
2018-08-10T00:40:46.971Z,26.19
2018-08-10T00:43:16.336Z,26.18
2018-08-10T00:45:45.568Z,26.16
2018-08-10T00:48:15.109Z,26.14
2018-08-10T00:50:44.463Z,26.11
2018-08-10T00:53:13.640Z,26.08
2018-08-10T00:55:42.933Z,26.04
2018-08-10T00:58:12.475Z,26.06
2018-08-10T01:00:42.104Z,26.08
2018-08-10T01:03:11.277Z,26.08
2018-08-10T01:05:40.616Z,26.09
2018-08-10T01:08:09.942Z,26.12
2018-08-10T01:10:39.169Z,26.12
2018-08-10T01:13:09.102Z,26.16
2018-08-10T01:15:38.655Z,26.19
2018-08-10T01:18:07.900Z,26.25
2018-08-10T01:20:37.121Z,26.24
2018-08-10T01:23:07.628Z,26.23
2018-08-10T01:25:37.205Z,26.18
2018-08-10T01:28:06.456Z,26.22
2018-08-10T01:30:36.433Z,26.26
2018-08-10T01:33:05.666Z,26.22
2018-08-10T01:35:35.095Z,26.26
2018-08-10T01:38:04.322Z,26.29
2018-08-10T01:40:33.556Z,26.30
2018-08-10T01:43:02.890Z,26.15
2018-08-10T01:45:32.192Z,25.98
2018-08-10T01:48:01.793Z,25.81
2018-08-10T01:50:31.012Z,25.64
2018-08-10T01:53:00.280Z,25.42
2018-08-10T01:55:29.518Z,25.28
2018-08-10T01:57:59.145Z,25.22
2018-08-10T02:00:28.308Z,25.18
2018-08-10T02:02:57.644Z,25.17
2018-08-10T02:05:26.942Z,25.08
2018-08-10T02:07:56.123Z,25.22
2018-08-10T02:10:26.344Z,25.09
2018-08-10T02:12:57.119Z,24.91
2018-08-10T02:15:27.032Z,24.84
2018-08-10T02:17:56.201Z,24.64
2018-08-10T02:20:26.173Z,24.44
2018-08-10T02:22:55.398Z,24.33
2018-08-10T02:25:24.615Z,24.23
2018-08-10T02:27:53.868Z,24.12
2018-08-10T02:30:23.272Z,23.95
2018-08-10T02:32:53.065Z,23.88
2018-08-10T02:35:22.313Z,23.81
2018-08-10T02:37:51.516Z,23.87
2018-08-10T02:40:21.961Z,23.77
2018-08-10T02:42:52.576Z,23.56
2018-08-10T02:45:22.127Z,23.35
2018-08-10T02:47:51.581Z,23.22
2018-08-10T02:50:20.797Z,23.10
2018-08-10T02:52:50.664Z,22.96
2018-08-10T02:55:19.902Z,22.80
2018-08-10T02:57:49.132Z,22.68
2018-08-10T03:00:18.692Z,22.61
2018-08-10T03:02:47.864Z,22.51
2018-08-10T03:05:17.307Z,22.43
2018-08-10T03:07:46.905Z,22.37
2018-08-10T03:10:16.305Z,22.37
2018-08-10T03:12:45.504Z,22.34
2018-08-10T03:15:16.206Z,22.32
2018-08-10T03:17:46.200Z,22.36
2018-08-10T03:20:15.398Z,22.53
2018-08-10T03:22:44.959Z,22.65
2018-08-10T03:25:15.308Z,22.60
2018-08-10T03:27:44.550Z,22.69
2018-08-10T03:30:14.380Z,22.63
2018-08-10T03:32:43.648Z,22.60
2018-08-10T03:35:13.032Z,22.59
2018-08-10T03:37:42.355Z,22.60
2018-08-10T03:40:14.449Z,22.47
2018-08-10T03:42:44.025Z,22.43
2018-08-10T03:45:13.392Z,22.50
2018-08-10T03:47:42.649Z,22.35
2018-08-10T03:50:14.307Z,22.32
2018-08-10T03:52:44.658Z,22.29
2018-08-10T03:55:13.936Z,22.28
2018-08-10T03:57:43.252Z,22.27
2018-08-10T04:00:13.908Z,22.38
2018-08-10T04:02:44.180Z,22.41
2018-08-10T04:05:14.457Z,22.42
2018-08-10T04:07:43.648Z,22.58
2018-08-10T04:10:12.904Z,22.73
2018-08-10T04:12:42.228Z,22.85
2018-08-10T04:15:14.091Z,23.03
2018-08-10T04:17:43.543Z,23.12
2018-08-10T04:20:12.843Z,23.31
2018-08-10T04:22:42.448Z,23.51
2018-08-10T04:25:11.727Z,23.65
2018-08-10T04:27:40.909Z,23.80
2018-08-10T04:30:11.321Z,23.97
2018-08-10T04:32:40.720Z,24.12
2018-08-10T04:35:10.224Z,24.20
2018-08-10T04:37:39.471Z,24.32
2018-08-10T04:40:10.304Z,24.40
2018-08-10T04:42:39.571Z,24.55
2018-08-10T04:45:09.188Z,24.77
2018-08-10T04:47:42.591Z,24.94
2018-08-10T04:50:11.825Z,25.10
2018-08-10T04:52:41.362Z,25.29
2018-08-10T04:55:10.692Z,25.35
2018-08-10T04:57:41.100Z,25.31
2018-08-10T05:00:12.684Z,25.36
2018-08-10T05:02:41.928Z,25.42
2018-08-10T05:05:11.604Z,25.45
2018-08-10T05:07:42.040Z,25.58
2018-08-10T05:10:11.454Z,25.89
2018-08-10T05:12:41.094Z,26.15
2018-08-10T05:15:11.692Z,26.47
2018-08-10T05:17:40.885Z,26.78
2018-08-10T05:20:11.392Z,27.21
2018-08-10T05:22:41.432Z,27.80
2018-08-10T05:25:10.998Z,28.79
2018-08-10T05:27:40.151Z,30.16
2018-08-10T05:30:10.371Z,31.55
2018-08-10T05:32:40.308Z,32.71
2018-08-10T05:35:10.241Z,33.61
2018-08-10T05:37:39.664Z,34.60
2018-08-10T05:40:09.841Z,35.43
2018-08-10T05:42:39.762Z,36.15
2018-08-10T05:45:09.291Z,36.83
2018-08-10T05:47:38.300Z,37.35
2018-08-10T05:50:07.696Z,37.95
2018-08-10T05:52:36.708Z,38.64
2018-08-10T05:55:06.660Z,39.38
2018-08-10T05:57:35.670Z,39.93
2018-08-10T06:00:05.464Z,40.34
2018-08-10T06:02:34.807Z,40.00
2018-08-10T06:05:04.922Z,39.88
2018-08-10T06:07:37.541Z,40.01
2018-08-10T06:10:09.886Z,40.30
2018-08-10T06:12:39.798Z,40.74
2018-08-10T06:15:09.853Z,40.97
2018-08-10T06:17:39.208Z,41.02
2018-08-10T06:20:09.886Z,40.88
2018-08-10T06:22:38.937Z,40.50
2018-08-10T06:25:08.414Z,40.82
2018-08-10T06:27:37.550Z,41.26
2018-08-10T06:30:09.716Z,41.38
2018-08-10T06:32:38.881Z,41.54
2018-08-10T06:35:08.240Z,41.43
2018-08-10T06:37:37.205Z,41.42
2018-08-10T06:40:06.312Z,41.87
2018-08-10T06:42:35.187Z,42.24
2018-08-10T06:45:04.592Z,41.90
2018-08-10T06:47:33.561Z,40.84
2018-08-10T06:50:02.524Z,39.51
2018-08-10T06:52:31.539Z,38.09
2018-08-10T06:55:00.722Z,36.69
2018-08-10T06:57:30.041Z,35.24
2018-08-10T06:59:59.193Z,34.36
2018-08-10T07:02:28.444Z,33.81
2018-08-10T07:04:57.705Z,33.20
2018-08-10T07:07:26.926Z,32.60
2018-08-10T07:09:56.351Z,32.11
2018-08-10T07:12:25.620Z,31.71
2018-08-10T07:14:54.840Z,31.45
2018-08-10T07:17:24.029Z,31.30
2018-08-10T07:19:53.229Z,31.08
2018-08-10T07:22:22.605Z,30.85
2018-08-10T07:24:51.824Z,30.58
2018-08-10T07:27:22.260Z,30.27
2018-08-10T07:29:51.512Z,30.08
2018-08-10T07:32:20.989Z,29.93
2018-08-10T07:34:51.194Z,29.92
2018-08-10T07:37:20.885Z,30.04
2018-08-10T07:39:50.199Z,30.25
2018-08-10T07:42:19.836Z,30.43
2018-08-10T07:44:49.019Z,30.73
2018-08-10T07:47:18.365Z,31.21
2018-08-10T07:49:47.592Z,31.79
2018-08-10T07:52:17.304Z,32.12
2018-08-10T07:54:46.963Z,32.31
2018-08-10T07:57:16.420Z,32.07
2018-08-10T07:59:45.769Z,31.98
2018-08-10T08:02:15.272Z,31.93
2018-08-10T08:04:44.525Z,31.84
2018-08-10T08:07:13.772Z,31.75
2018-08-10T08:09:42.940Z,31.79
2018-08-10T08:12:12.204Z,31.88
2018-08-10T08:14:41.655Z,31.70
2018-08-10T08:17:10.888Z,31.53
2018-08-10T08:19:40.572Z,31.35
2018-08-10T08:22:13.897Z,31.09
2018-08-10T08:24:43.548Z,30.67
2018-08-10T08:27:14.256Z,30.18
2018-08-10T08:29:43.972Z,29.80
2018-08-10T08:32:13.716Z,29.53
2018-08-10T08:34:43.443Z,29.47
2018-08-10T08:37:12.962Z,30.02
2018-08-10T08:40:49.203Z,31.03
2018-08-10T08:44:34.104Z,31.77
2018-08-10T08:47:05.208Z,31.79
2018-08-10T08:49:35.357Z,31.71
2018-08-10T08:52:05.169Z,31.74
2018-08-10T08:55:10.481Z,31.60
2018-08-10T08:57:40.465Z,31.32
2018-08-10T09:00:13.962Z,30.96
2018-08-10T09:02:43.347Z,30.66
2018-08-10T09:05:12.649Z,30.64
2018-08-10T09:07:42.297Z,30.82
2018-08-10T09:10:15.044Z,30.98
2018-08-10T09:12:44.526Z,31.11
2018-08-10T09:15:16.170Z,31.22
2018-08-10T09:17:45.394Z,31.53
2018-08-10T09:20:14.936Z,31.82
2018-08-10T09:22:44.518Z,32.11
2018-08-10T09:25:16.685Z,32.57
2018-08-10T09:27:47.558Z,33.07
2018-08-10T09:30:18.664Z,33.65
2018-08-10T09:32:47.897Z,33.93
2018-08-10T09:35:17.383Z,33.77
2018-08-10T09:37:46.597Z,33.43
2018-08-10T09:40:17.606Z,33.04
2018-08-10T09:42:47.262Z,32.85
2018-08-10T09:45:17.549Z,32.64
2018-08-10T09:47:47.999Z,32.41
2018-08-10T09:50:18.215Z,31.86
2018-08-10T09:52:54.646Z,31.41
2018-08-10T09:55:27.536Z,30.98
2018-08-10T09:57:59.083Z,30.55
2018-08-10T10:00:34.051Z,30.24
2018-08-10T10:03:08.698Z,30.10
2018-08-10T10:05:37.917Z,29.99
2018-08-10T10:08:07.241Z,29.90
2018-08-10T10:10:36.468Z,29.78
2018-08-10T10:13:06.349Z,29.45
2018-08-10T10:15:35.880Z,29.07
2018-08-10T10:18:06.299Z,28.59
2018-08-10T10:20:35.695Z,28.10
2018-08-10T10:23:05.129Z,27.75
2018-08-10T10:25:34.624Z,27.50
2018-08-10T10:28:04.548Z,27.05
2018-08-10T10:30:33.775Z,26.54
2018-08-10T10:33:03.346Z,25.98
2018-08-10T10:35:32.736Z,25.47
2018-08-10T10:38:02.161Z,24.80
2018-08-10T10:40:31.341Z,24.22
2018-08-10T10:43:00.523Z,23.78
2018-08-10T10:45:29.828Z,23.29
2018-08-10T10:47:59.380Z,22.88
2018-08-10T10:50:28.618Z,22.49
2018-08-10T10:52:58.094Z,22.32
2018-08-10T10:55:27.439Z,22.23
2018-08-10T10:57:56.805Z,22.29
2018-08-10T11:00:26.016Z,22.34
2018-08-10T11:02:55.260Z,22.25
2018-08-10T11:05:24.601Z,22.29
2018-08-10T11:07:53.892Z,22.36
2018-08-10T11:10:23.429Z,22.23
2018-08-10T11:12:53.134Z,22.18
2018-08-10T11:15:22.741Z,22.20
2018-08-10T11:17:51.945Z,22.02
2018-08-10T11:20:21.246Z,21.71
2018-08-10T11:22:50.976Z,21.20
2018-08-10T11:25:20.174Z,20.48
2018-08-10T11:27:49.585Z,20.07
2018-08-10T11:30:18.880Z,19.98
2018-08-10T11:32:48.303Z,19.79
2018-08-10T11:35:17.232Z,19.70
2018-08-10T11:37:46.865Z,19.74
2018-08-10T11:40:17.256Z,19.77
2018-08-10T11:42:46.115Z,19.90
2018-08-10T11:45:17.012Z,20.08
2018-08-10T11:47:45.768Z,20.23
2018-08-10T11:50:14.480Z,20.51
2018-08-10T11:52:44.016Z,20.78
2018-08-10T11:55:14.477Z,20.88
2018-08-10T11:57:44.699Z,21.01
2018-08-10T12:00:16.251Z,21.18
2018-08-10T12:02:45.550Z,21.33
2018-08-10T12:05:15.092Z,21.32
2018-08-10T12:07:44.537Z,21.48
2018-08-10T12:10:13.716Z,21.67
2018-08-10T12:12:42.900Z,21.82
2018-08-10T12:15:13.896Z,22.05
2018-08-10T12:17:43.443Z,22.20
2018-08-10T12:20:12.628Z,22.42
2018-08-10T12:22:42.678Z,22.73
2018-08-10T12:25:12.026Z,22.99
2018-08-10T12:27:41.547Z,23.24
2018-08-10T12:30:12.627Z,23.32
2018-08-10T12:32:42.414Z,23.49
2018-08-10T12:35:13.068Z,23.63
2018-08-10T12:37:42.259Z,23.71
2018-08-10T12:40:11.574Z,23.87
2018-08-10T12:42:41.090Z,23.94
2018-08-10T12:45:10.569Z,24.07
2018-08-10T12:47:40.250Z,24.30
2018-08-10T12:50:10.540Z,24.47
2018-08-10T12:52:40.293Z,24.70
2018-08-10T12:55:09.727Z,25.02
2018-08-10T12:57:39.397Z,25.30
2018-08-10T13:00:11.127Z,25.50
2018-08-10T13:02:40.818Z,25.69
2018-08-10T13:05:10.228Z,25.84
2018-08-10T13:07:39.457Z,26.04
2018-08-10T13:10:10.627Z,26.11
2018-08-10T13:12:40.893Z,26.24
2018-08-10T13:15:11.665Z,26.44
2018-08-10T13:17:40.895Z,26.63
2018-08-10T13:20:13.844Z,26.77
2018-08-10T13:22:44.140Z,26.87
2018-08-10T13:25:13.840Z,26.82
2018-08-10T13:27:43.145Z,26.99
2018-08-10T13:30:13.365Z,27.15
2018-08-10T13:32:42.588Z,27.15
2018-08-10T13:35:11.783Z,27.26
2018-08-10T13:37:41.119Z,27.25
2018-08-10T13:40:10.974Z,27.09
2018-08-10T13:42:40.584Z,27.02
2018-08-10T13:45:11.669Z,26.90
2018-08-10T13:47:40.917Z,26.97
2018-08-10T13:50:12.635Z,27.21
2018-08-10T13:52:41.907Z,27.26
2018-08-10T13:55:14.365Z,27.34
2018-08-10T13:57:43.643Z,27.43
2018-08-10T14:00:18.112Z,27.55
2018-08-10T14:02:47.629Z,27.62
2018-08-10T14:05:17.334Z,27.68
2018-08-10T14:08:19.575Z,27.77
2018-08-10T14:10:48.757Z,27.84
2018-08-10T14:13:19.248Z,27.91
2018-08-10T14:15:48.520Z,28.06
2018-08-10T14:18:18.284Z,28.31
2018-08-10T14:20:47.528Z,28.58
2018-08-10T14:23:17.328Z,28.63
2018-08-10T14:25:47.589Z,28.56
2018-08-10T14:28:17.011Z,28.50
2018-08-10T14:30:46.328Z,28.43
2018-08-10T14:33:15.593Z,28.39
2018-08-10T14:35:44.995Z,28.31
2018-08-10T14:38:14.263Z,28.10
2018-08-10T14:40:43.568Z,27.69
2018-08-10T14:43:12.752Z,27.30
2018-08-10T14:45:42.220Z,26.95
2018-08-10T14:48:12.167Z,26.64
2018-08-10T14:50:41.419Z,26.36
2018-08-10T14:53:10.638Z,26.18
2018-08-10T14:55:39.830Z,25.96
2018-08-10T14:58:09.135Z,25.89
2018-08-10T15:00:38.324Z,25.74
2018-08-10T15:03:08.038Z,25.64
2018-08-10T15:05:37.561Z,25.62
2018-08-10T15:08:06.788Z,25.70
2018-08-10T15:10:37.919Z,25.75
2018-08-10T15:13:07.224Z,25.81
2018-08-10T15:15:36.928Z,25.87
2018-08-10T15:18:06.580Z,25.90
2018-08-10T15:20:35.950Z,25.84
2018-08-10T15:23:05.292Z,25.74
2018-08-10T15:25:34.694Z,25.68
2018-08-10T15:28:04.617Z,25.60
2018-08-10T15:30:34.228Z,25.51
2018-08-10T15:33:03.567Z,25.39
2018-08-10T15:35:33.805Z,25.26
2018-08-10T15:38:03.078Z,25.15
2018-08-10T15:40:32.393Z,25.14
2018-08-10T15:43:01.649Z,25.05
2018-08-10T15:45:31.224Z,25.01
2018-08-10T15:48:00.738Z,24.93
2018-08-10T15:50:30.014Z,24.94
2018-08-10T15:52:59.240Z,24.95
2018-08-10T15:55:28.480Z,24.95
2018-08-10T15:57:57.936Z,24.96
2018-08-10T16:00:27.247Z,24.93
2018-08-10T16:02:56.526Z,24.88
2018-08-10T16:05:26.076Z,24.85
2018-08-10T16:07:55.348Z,24.83
2018-08-10T16:10:24.653Z,24.74
2018-08-10T16:12:53.876Z,24.71
2018-08-10T16:15:23.163Z,24.61
2018-08-10T16:17:52.362Z,24.53
2018-08-10T16:20:22.713Z,24.51
2018-08-10T16:22:52.436Z,24.47
2018-08-10T16:25:21.700Z,24.47
2018-08-10T16:27:50.931Z,24.45
2018-08-10T16:30:20.919Z,24.43
2018-08-10T16:32:50.086Z,24.37
2018-08-10T16:35:19.665Z,24.42
2018-08-10T16:37:48.852Z,24.41
2018-08-10T16:40:18.952Z,24.46
2018-08-10T16:42:48.184Z,24.53
2018-08-10T16:45:17.803Z,24.60
2018-08-10T16:47:47.125Z,24.63
2018-08-10T16:50:17.901Z,24.63
2018-08-10T16:52:47.669Z,24.63
2018-08-10T16:55:18.456Z,24.61
2018-08-10T16:57:48.654Z,24.55
2018-08-10T17:00:19.952Z,24.50
2018-08-10T17:02:49.492Z,24.55
2018-08-10T17:05:19.433Z,24.50
2018-08-10T17:07:48.888Z,24.50
2018-08-10T17:10:18.341Z,24.39
2018-08-10T17:12:48.308Z,24.26
2018-08-10T17:15:18.844Z,24.14
2018-08-10T17:17:48.780Z,24.13
2018-08-10T17:22:05.027Z,23.99
2018-08-10T17:24:34.840Z,23.92
2018-08-10T17:27:04.047Z,23.86
2018-08-10T17:29:33.265Z,23.73
2018-08-10T17:32:02.796Z,23.62
2018-08-10T17:34:32.062Z,23.53
2018-08-10T17:37:01.276Z,23.44
2018-08-10T17:39:30.489Z,23.33
2018-08-10T17:42:00.074Z,23.22
2018-08-10T17:44:29.420Z,23.24
2018-08-10T17:46:59.203Z,23.14
2018-08-10T17:49:28.432Z,23.17
2018-08-10T17:51:57.678Z,23.10
2018-08-10T17:54:27.515Z,22.94
2018-08-10T17:56:57.081Z,22.92
2018-08-10T17:59:26.301Z,22.97
2018-08-10T18:01:55.876Z,22.89
2018-08-10T18:04:25.156Z,22.80
2018-08-10T18:06:55.449Z,22.69
2018-08-10T18:09:24.644Z,22.63
2018-08-10T18:11:53.969Z,22.57
2018-08-10T18:14:23.168Z,22.69
2018-08-10T18:16:52.686Z,22.65
2018-08-10T18:19:22.216Z,22.59
2018-08-10T18:21:51.773Z,22.44
2018-08-10T18:24:21.941Z,22.29
2018-08-10T18:26:51.216Z,22.18
2018-08-10T18:29:20.453Z,22.09
2018-08-10T18:31:50.156Z,21.98
2018-08-10T18:34:20.014Z,21.93
2018-08-10T18:36:49.237Z,21.88
2018-08-10T18:39:18.763Z,21.80
2018-08-10T18:41:48.293Z,21.70
2018-08-10T18:44:18.335Z,21.76
2018-08-10T18:46:48.477Z,21.73
2018-08-10T18:49:17.976Z,21.65
2018-08-10T18:51:47.227Z,21.59
2018-08-10T18:54:16.604Z,21.52
2018-08-10T18:56:46.837Z,21.47
2018-08-10T18:59:16.134Z,21.45
2018-08-10T19:01:45.426Z,21.49
2018-08-10T19:04:14.840Z,21.46
2018-08-10T19:06:44.458Z,21.47
2018-08-10T19:09:13.744Z,21.42
2018-08-10T19:11:43.025Z,21.37
2018-08-10T19:14:12.353Z,21.37
2018-08-10T19:16:41.607Z,21.37
2018-08-10T19:19:10.963Z,21.47
2018-08-10T19:21:40.333Z,21.56
2018-08-10T19:24:09.587Z,21.52
2018-08-10T19:26:39.097Z,21.55
2018-08-10T19:29:08.607Z,21.69
2018-08-10T19:31:37.221Z,21.73
2018-08-10T19:34:06.176Z,21.69
2018-08-10T19:36:35.172Z,21.67
2018-08-10T19:39:04.917Z,21.63
2018-08-10T19:41:33.914Z,21.51
2018-08-10T19:44:02.553Z,21.35
2018-08-10T19:46:31.359Z,21.16
2018-08-10T19:49:00.062Z,20.94
2018-08-10T19:51:28.705Z,20.80
2018-08-10T19:53:57.548Z,20.72
2018-08-10T19:56:26.339Z,20.65
2018-08-10T19:58:55.032Z,20.59
2018-08-10T20:01:23.752Z,20.41
2018-08-10T20:03:52.488Z,20.26
2018-08-10T20:06:21.189Z,20.18
2018-08-10T20:08:50.103Z,20.12
2018-08-10T20:11:19.050Z,20.03
2018-08-10T20:13:47.638Z,19.99
2018-08-10T20:16:16.605Z,19.96
2018-08-10T20:18:45.344Z,19.99
2018-08-10T20:21:14.361Z,19.94
2018-08-10T20:23:43.581Z,19.85
2018-08-10T20:26:12.244Z,19.89
2018-08-10T20:28:40.906Z,19.93
2018-08-10T20:31:09.579Z,19.84
2018-08-10T20:33:38.700Z,19.72
2018-08-10T20:36:07.324Z,19.70
2018-08-10T20:38:36.011Z,19.67
2018-08-10T20:41:04.645Z,19.65
2018-08-10T20:43:33.276Z,19.56
2018-08-10T20:46:02.292Z,19.56
2018-08-10T20:48:31.409Z,19.65
2018-08-10T20:51:00.306Z,19.62
2018-08-10T20:53:29.356Z,19.66
2018-08-10T20:55:58.069Z,19.65
2018-08-10T20:58:26.692Z,19.58
2018-08-10T21:00:56.804Z,19.55
2018-08-10T21:03:25.919Z,19.53
2018-08-10T21:05:54.536Z,19.69
2018-08-10T21:08:23.168Z,19.76
2018-08-10T21:10:52.052Z,19.81
2018-08-10T21:13:20.735Z,19.80
2018-08-10T21:15:49.467Z,19.67
2018-08-10T21:18:18.835Z,19.56
2018-08-10T21:20:47.547Z,19.51
2018-08-10T21:23:16.391Z,19.61
2018-08-10T21:25:45.463Z,19.57
2018-08-10T21:28:14.132Z,19.64
2018-08-10T21:30:42.749Z,19.64
2018-08-10T21:33:11.493Z,19.62
2018-08-10T21:35:40.304Z,19.61
2018-08-10T21:38:08.932Z,19.58
2018-08-10T21:40:37.560Z,19.57
2018-08-10T21:43:06.483Z,19.62
2018-08-10T21:45:35.195Z,19.62
2018-08-10T21:48:05.116Z,19.70
2018-08-10T21:50:33.792Z,19.67
2018-08-10T21:53:02.452Z,19.64
2018-08-10T21:55:31.169Z,19.62
2018-08-10T21:57:59.755Z,19.51
2018-08-10T22:00:41.506Z,19.47
2018-08-10T22:03:10.781Z,19.49
2018-08-10T22:05:40.056Z,19.52
2018-08-10T22:08:08.676Z,19.61
2018-08-10T22:10:37.584Z,19.74
2018-08-10T22:13:06.212Z,19.77
2018-08-10T22:15:40.193Z,19.77
2018-08-10T22:18:14.274Z,19.65
2018-08-10T22:20:42.929Z,19.60
2018-08-10T22:23:11.870Z,19.58
2018-08-10T22:25:40.508Z,19.56
2018-08-10T22:28:09.159Z,19.57
2018-08-10T22:30:37.757Z,19.64
2018-08-10T22:33:06.635Z,19.70
2018-08-10T22:35:35.523Z,19.71
2018-08-10T22:38:04.928Z,19.63
2018-08-10T22:40:33.530Z,19.62
2018-08-10T22:43:02.443Z,19.63
2018-08-10T22:45:31.224Z,19.52
2018-08-10T22:47:59.859Z,19.44
2018-08-10T22:50:28.520Z,19.41
2018-08-10T22:52:57.328Z,19.30
2018-08-10T22:55:26.037Z,19.25
2018-08-10T22:57:54.924Z,19.28
2018-08-10T23:00:23.933Z,19.16
2018-08-10T23:02:53.134Z,19.16
2018-08-10T23:05:21.911Z,19.20
2018-08-10T23:07:50.552Z,19.14
2018-08-10T23:10:19.272Z,19.09
2018-08-10T23:12:47.900Z,19.07
2018-08-10T23:15:16.744Z,19.05
2018-08-10T23:17:45.335Z,19.00
2018-08-10T23:20:14.931Z,18.97
2018-08-10T23:22:43.830Z,18.92
2018-08-10T23:25:14.029Z,18.96
2018-08-10T23:27:44.197Z,18.90
2018-08-10T23:30:14.167Z,18.84
2018-08-10T23:32:43.068Z,18.99
2018-08-10T23:35:12.061Z,19.16
2018-08-10T23:37:41.164Z,19.15
2018-08-10T23:40:12.809Z,19.07
2018-08-10T23:42:41.412Z,18.98
2018-08-10T23:45:12.594Z,18.94
2018-08-10T23:47:42.195Z,18.89
2018-08-10T23:50:14.110Z,18.97
2018-08-10T23:52:43.116Z,18.95
2018-08-10T23:55:12.353Z,18.91
2018-08-10T23:57:48.104Z,18.89
